sensor_id;sensor_type;location;lat;lon;timestamp;P1;durP1;ratioP1;P2;durP2;ratioP2
66270;SDS011;53063;39.614;8.814;2022-08-21T00:02:24;6.85;;;1.10;;
66270;SDS011;53063;39.614;8.814;2022-08-21T00:04:52;6.35;;;1.00;;
66270;SDS011;53063;39.614;8.814;2022-08-21T00:07:19;5.28;;;1.23;;
66270;SDS011;53063;39.614;8.814;2022-08-21T00:09:45;6.75;;;1.38;;
66270;SDS011;53063;39.614;8.814;2022-08-21T00:12:12;5.22;;;1.08;;
66270;SDS011;53063;39.614;8.814;2022-08-21T00:14:39;7.18;;;1.20;;
66270;SDS011;53063;39.614;8.814;2022-08-21T00:17:05;4.60;;;1.00;;
66270;SDS011;53063;39.614;8.814;2022-08-21T00:19:32;10.27;;;1.27;;
66270;SDS011;53063;39.614;8.814;2022-08-21T00:21:58;5.95;;;1.23;;
66270;SDS011;53063;39.614;8.814;2022-08-21T00:24:24;9.60;;;1.00;;
66270;SDS011;53063;39.614;8.814;2022-08-21T00:26:51;6.68;;;1.13;;
66270;SDS011;53063;39.614;8.814;2022-08-21T00:29:18;4.57;;;1.33;;
66270;SDS011;53063;39.614;8.814;2022-08-21T00:31:44;10.35;;;1.48;;
66270;SDS011;53063;39.614;8.814;2022-08-21T00:34:11;5.20;;;1.13;;
66270;SDS011;53063;39.614;8.814;2022-08-21T00:36:38;6.60;;;1.38;;
66270;SDS011;53063;39.614;8.814;2022-08-21T00:39:06;6.40;;;1.58;;
66270;SDS011;53063;39.614;8.814;2022-08-21T00:41:34;4.88;;;1.40;;
66270;SDS011;53063;39.614;8.814;2022-08-21T00:44:02;6.53;;;0.90;;
66270;SDS011;53063;39.614;8.814;2022-08-21T00:46:29;6.45;;;1.35;;
66270;SDS011;53063;39.614;8.814;2022-08-21T00:48:55;7.57;;;1.25;;
66270;SDS011;53063;39.614;8.814;2022-08-21T00:51:24;7.07;;;2.03;;
66270;SDS011;53063;39.614;8.814;2022-08-21T00:53:59;5.15;;;1.08;;
66270;SDS011;53063;39.614;8.814;2022-08-21T00:56:26;7.40;;;1.20;;
66270;SDS011;53063;39.614;8.814;2022-08-21T00:58:53;5.60;;;1.27;;
66270;SDS011;53063;39.614;8.814;2022-08-21T01:01:22;8.90;;;1.25;;
66270;SDS011;53063;39.614;8.814;2022-08-21T01:03:48;5.35;;;1.17;;
66270;SDS011;53063;39.614;8.814;2022-08-21T01:06:15;6.22;;;1.25;;
66270;SDS011;53063;39.614;8.814;2022-08-21T01:08:41;5.30;;;1.35;;
66270;SDS011;53063;39.614;8.814;2022-08-21T01:11:07;5.75;;;1.20;;
66270;SDS011;53063;39.614;8.814;2022-08-21T01:13:34;5.43;;;1.02;;
66270;SDS011;53063;39.614;8.814;2022-08-21T01:16:02;6.38;;;1.10;;
66270;SDS011;53063;39.614;8.814;2022-08-21T01:18:33;5.63;;;1.42;;
66270;SDS011;53063;39.614;8.814;2022-08-21T01:21:09;6.88;;;1.08;;
66270;SDS011;53063;39.614;8.814;2022-08-21T01:23:41;5.35;;;1.20;;
66270;SDS011;53063;39.614;8.814;2022-08-21T01:26:10;7.32;;;1.10;;
66270;SDS011;53063;39.614;8.814;2022-08-21T01:28:38;4.68;;;1.35;;
66270;SDS011;53063;39.614;8.814;2022-08-21T01:31:09;6.80;;;1.20;;
66270;SDS011;53063;39.614;8.814;2022-08-21T01:33:38;7.95;;;1.10;;
66270;SDS011;53063;39.614;8.814;2022-08-21T01:36:05;4.50;;;1.02;;
66270;SDS011;53063;39.614;8.814;2022-08-21T01:38:31;12.23;;;1.52;;
66270;SDS011;53063;39.614;8.814;2022-08-21T01:40:57;6.90;;;1.35;;
66270;SDS011;53063;39.614;8.814;2022-08-21T01:43:23;12.68;;;1.35;;
66270;SDS011;53063;39.614;8.814;2022-08-21T01:45:50;8.73;;;1.17;;
66270;SDS011;53063;39.614;8.814;2022-08-21T01:48:16;9.38;;;1.20;;
66270;SDS011;53063;39.614;8.814;2022-08-21T01:50:42;4.70;;;1.35;;
66270;SDS011;53063;39.614;8.814;2022-08-21T01:53:08;3.90;;;0.82;;
66270;SDS011;53063;39.614;8.814;2022-08-21T01:55:34;11.02;;;1.60;;
66270;SDS011;53063;39.614;8.814;2022-08-21T01:58:00;10.75;;;1.20;;
66270;SDS011;53063;39.614;8.814;2022-08-21T02:00:26;3.90;;;1.08;;
66270;SDS011;53063;39.614;8.814;2022-08-21T02:02:52;4.47;;;1.30;;
66270;SDS011;53063;39.614;8.814;2022-08-21T02:05:18;4.90;;;1.65;;
66270;SDS011;53063;39.614;8.814;2022-08-21T02:07:45;6.57;;;1.20;;
66270;SDS011;53063;39.614;8.814;2022-08-21T02:10:15;3.83;;;0.90;;
66270;SDS011;53063;39.614;8.814;2022-08-21T02:12:47;6.57;;;1.15;;
66270;SDS011;53063;39.614;8.814;2022-08-21T02:15:15;7.45;;;1.50;;
66270;SDS011;53063;39.614;8.814;2022-08-21T02:17:46;4.55;;;1.17;;
66270;SDS011;53063;39.614;8.814;2022-08-21T02:20:16;5.90;;;1.13;;
66270;SDS011;53063;39.614;8.814;2022-08-21T02:22:46;10.07;;;1.90;;
66270;SDS011;53063;39.614;8.814;2022-08-21T02:25:12;5.55;;;1.23;;
66270;SDS011;53063;39.614;8.814;2022-08-21T02:27:39;8.23;;;1.33;;
66270;SDS011;53063;39.614;8.814;2022-08-21T02:30:07;6.03;;;1.10;;
66270;SDS011;53063;39.614;8.814;2022-08-21T02:32:38;8.18;;;1.05;;
66270;SDS011;53063;39.614;8.814;2022-08-21T02:35:05;9.30;;;1.17;;
66270;SDS011;53063;39.614;8.814;2022-08-21T02:37:31;4.40;;;1.10;;
66270;SDS011;53063;39.614;8.814;2022-08-21T02:39:59;5.97;;;1.08;;
66270;SDS011;53063;39.614;8.814;2022-08-21T02:42:26;8.18;;;1.40;;
66270;SDS011;53063;39.614;8.814;2022-08-21T02:44:52;2.75;;;1.02;;
66270;SDS011;53063;39.614;8.814;2022-08-21T02:47:18;3.42;;;1.05;;
66270;SDS011;53063;39.614;8.814;2022-08-21T02:49:44;5.40;;;1.10;;
66270;SDS011;53063;39.614;8.814;2022-08-21T02:52:10;6.18;;;1.20;;
66270;SDS011;53063;39.614;8.814;2022-08-21T02:54:37;3.42;;;1.00;;
66270;SDS011;53063;39.614;8.814;2022-08-21T02:57:03;3.35;;;0.70;;
66270;SDS011;53063;39.614;8.814;2022-08-21T02:59:29;4.90;;;1.33;;
66270;SDS011;53063;39.614;8.814;2022-08-21T03:01:54;4.43;;;1.00;;
66270;SDS011;53063;39.614;8.814;2022-08-21T03:04:21;8.40;;;1.40;;
66270;SDS011;53063;39.614;8.814;2022-08-21T03:06:47;1.98;;;0.93;;
66270;SDS011;53063;39.614;8.814;2022-08-21T03:09:13;2.90;;;0.93;;
66270;SDS011;53063;39.614;8.814;2022-08-21T03:11:39;10.13;;;1.55;;
66270;SDS011;53063;39.614;8.814;2022-08-21T03:14:05;6.90;;;1.17;;
66270;SDS011;53063;39.614;8.814;2022-08-21T03:16:31;6.28;;;1.10;;
66270;SDS011;53063;39.614;8.814;2022-08-21T03:18:57;3.97;;;1.02;;
66270;SDS011;53063;39.614;8.814;2022-08-21T03:21:23;5.07;;;1.75;;
66270;SDS011;53063;39.614;8.814;2022-08-21T03:23:48;4.57;;;1.00;;
66270;SDS011;53063;39.614;8.814;2022-08-21T03:26:14;5.30;;;0.95;;
66270;SDS011;53063;39.614;8.814;2022-08-21T03:28:40;6.55;;;1.30;;
66270;SDS011;53063;39.614;8.814;2022-08-21T03:31:06;7.13;;;1.50;;
66270;SDS011;53063;39.614;8.814;2022-08-21T03:33:33;6.00;;;0.90;;
66270;SDS011;53063;39.614;8.814;2022-08-21T03:36:00;4.47;;;0.98;;
66270;SDS011;53063;39.614;8.814;2022-08-21T03:38:30;4.40;;;1.08;;
66270;SDS011;53063;39.614;8.814;2022-08-21T03:40:57;3.83;;;0.73;;
66270;SDS011;53063;39.614;8.814;2022-08-21T03:43:24;4.60;;;1.23;;
66270;SDS011;53063;39.614;8.814;2022-08-21T03:45:50;4.38;;;0.90;;
66270;SDS011;53063;39.614;8.814;2022-08-21T03:48:16;8.50;;;1.15;;
66270;SDS011;53063;39.614;8.814;2022-08-21T03:50:43;5.93;;;1.08;;
66270;SDS011;53063;39.614;8.814;2022-08-21T03:53:12;6.50;;;0.98;;
66270;SDS011;53063;39.614;8.814;2022-08-21T03:55:39;5.00;;;1.35;;
66270;SDS011;53063;39.614;8.814;2022-08-21T03:58:05;3.88;;;1.20;;
66270;SDS011;53063;39.614;8.814;2022-08-21T04:00:32;8.35;;;1.33;;
66270;SDS011;53063;39.614;8.814;2022-08-21T04:02:58;12.45;;;1.90;;
66270;SDS011;53063;39.614;8.814;2022-08-21T04:05:24;5.78;;;1.10;;
66270;SDS011;53063;39.614;8.814;2022-08-21T04:07:54;4.72;;;1.00;;
66270;SDS011;53063;39.614;8.814;2022-08-21T04:10:21;4.35;;;1.00;;
66270;SDS011;53063;39.614;8.814;2022-08-21T04:12:48;3.10;;;0.85;;
66270;SDS011;53063;39.614;8.814;2022-08-21T04:15:14;6.35;;;1.20;;
66270;SDS011;53063;39.614;8.814;2022-08-21T04:17:40;4.35;;;1.20;;
66270;SDS011;53063;39.614;8.814;2022-08-21T04:20:06;7.82;;;1.42;;
66270;SDS011;53063;39.614;8.814;2022-08-21T04:22:33;5.20;;;1.05;;
66270;SDS011;53063;39.614;8.814;2022-08-21T04:24:59;11.40;;;1.27;;
66270;SDS011;53063;39.614;8.814;2022-08-21T04:27:24;4.25;;;0.95;;
66270;SDS011;53063;39.614;8.814;2022-08-21T04:29:50;4.72;;;1.00;;
66270;SDS011;53063;39.614;8.814;2022-08-21T04:32:23;9.32;;;1.17;;
66270;SDS011;53063;39.614;8.814;2022-08-21T04:34:49;3.20;;;1.10;;
66270;SDS011;53063;39.614;8.814;2022-08-21T04:37:15;7.00;;;0.90;;
66270;SDS011;53063;39.614;8.814;2022-08-21T04:39:42;3.85;;;1.20;;
66270;SDS011;53063;39.614;8.814;2022-08-21T04:42:08;4.22;;;1.20;;
66270;SDS011;53063;39.614;8.814;2022-08-21T04:44:34;3.03;;;0.82;;
66270;SDS011;53063;39.614;8.814;2022-08-21T04:47:00;5.03;;;1.02;;
66270;SDS011;53063;39.614;8.814;2022-08-21T04:49:26;8.82;;;0.93;;
66270;SDS011;53063;39.614;8.814;2022-08-21T04:51:52;11.48;;;1.40;;
66270;SDS011;53063;39.614;8.814;2022-08-21T04:54:19;10.18;;;1.55;;
66270;SDS011;53063;39.614;8.814;2022-08-21T04:56:49;7.40;;;1.27;;
66270;SDS011;53063;39.614;8.814;2022-08-21T04:59:25;6.30;;;1.00;;
66270;SDS011;53063;39.614;8.814;2022-08-21T05:01:56;3.15;;;0.93;;
66270;SDS011;53063;39.614;8.814;2022-08-21T05:04:23;9.52;;;1.33;;
66270;SDS011;53063;39.614;8.814;2022-08-21T05:06:56;10.43;;;1.55;;
66270;SDS011;53063;39.614;8.814;2022-08-21T05:09:25;8.88;;;2.03;;
66270;SDS011;53063;39.614;8.814;2022-08-21T05:11:52;9.30;;;1.10;;
66270;SDS011;53063;39.614;8.814;2022-08-21T05:14:19;8.73;;;1.45;;
66270;SDS011;53063;39.614;8.814;2022-08-21T05:16:46;7.25;;;1.45;;
66270;SDS011;53063;39.614;8.814;2022-08-21T05:19:12;10.80;;;1.05;;
66270;SDS011;53063;39.614;8.814;2022-08-21T05:21:42;5.97;;;1.88;;
66270;SDS011;53063;39.614;8.814;2022-08-21T05:24:10;6.45;;;1.38;;
66270;SDS011;53063;39.614;8.814;2022-08-21T05:26:37;11.07;;;1.67;;
66270;SDS011;53063;39.614;8.814;2022-08-21T05:29:04;7.50;;;1.60;;
66270;SDS011;53063;39.614;8.814;2022-08-21T05:31:30;7.85;;;1.25;;
66270;SDS011;53063;39.614;8.814;2022-08-21T05:33:56;5.78;;;1.02;;
66270;SDS011;53063;39.614;8.814;2022-08-21T05:36:22;7.97;;;1.30;;
66270;SDS011;53063;39.614;8.814;2022-08-21T05:38:48;7.70;;;1.40;;
66270;SDS011;53063;39.614;8.814;2022-08-21T05:41:14;10.20;;;1.40;;
66270;SDS011;53063;39.614;8.814;2022-08-21T05:43:40;5.82;;;1.15;;
66270;SDS011;53063;39.614;8.814;2022-08-21T05:46:06;4.28;;;1.02;;
66270;SDS011;53063;39.614;8.814;2022-08-21T05:48:33;3.47;;;1.00;;
66270;SDS011;53063;39.614;8.814;2022-08-21T05:51:04;4.38;;;1.10;;
66270;SDS011;53063;39.614;8.814;2022-08-21T05:53:32;4.97;;;0.82;;
66270;SDS011;53063;39.614;8.814;2022-08-21T05:55:58;6.88;;;1.30;;
66270;SDS011;53063;39.614;8.814;2022-08-21T05:58:24;7.30;;;1.50;;
66270;SDS011;53063;39.614;8.814;2022-08-21T06:00:51;11.15;;;1.17;;
66270;SDS011;53063;39.614;8.814;2022-08-21T06:03:24;6.13;;;1.30;;
66270;SDS011;53063;39.614;8.814;2022-08-21T06:05:53;3.95;;;1.05;;
66270;SDS011;53063;39.614;8.814;2022-08-21T06:08:21;5.70;;;1.20;;
66270;SDS011;53063;39.614;8.814;2022-08-21T06:10:48;9.80;;;1.33;;
66270;SDS011;53063;39.614;8.814;2022-08-21T06:13:16;7.22;;;1.10;;
66270;SDS011;53063;39.614;8.814;2022-08-21T06:15:43;3.90;;;1.20;;
66270;SDS011;53063;39.614;8.814;2022-08-21T06:18:09;5.10;;;1.27;;
66270;SDS011;53063;39.614;8.814;2022-08-21T06:20:35;6.75;;;1.65;;
66270;SDS011;53063;39.614;8.814;2022-08-21T06:23:01;8.00;;;1.15;;
66270;SDS011;53063;39.614;8.814;2022-08-21T06:25:28;5.93;;;1.20;;
66270;SDS011;53063;39.614;8.814;2022-08-21T06:28:04;7.82;;;1.40;;
66270;SDS011;53063;39.614;8.814;2022-08-21T06:30:34;4.93;;;0.90;;
66270;SDS011;53063;39.614;8.814;2022-08-21T06:33:02;6.70;;;1.40;;
66270;SDS011;53063;39.614;8.814;2022-08-21T06:35:29;4.30;;;1.20;;
66270;SDS011;53063;39.614;8.814;2022-08-21T06:37:56;5.15;;;1.20;;
66270;SDS011;53063;39.614;8.814;2022-08-21T06:40:22;24.80;;;2.17;;
66270;SDS011;53063;39.614;8.814;2022-08-21T06:42:49;9.77;;;1.58;;
66270;SDS011;53063;39.614;8.814;2022-08-21T06:45:15;5.90;;;1.30;;
66270;SDS011;53063;39.614;8.814;2022-08-21T06:47:41;6.38;;;1.15;;
66270;SDS011;53063;39.614;8.814;2022-08-21T06:50:07;5.20;;;1.40;;
66270;SDS011;53063;39.614;8.814;2022-08-21T06:52:34;4.13;;;0.90;;
66270;SDS011;53063;39.614;8.814;2022-08-21T06:55:07;8.45;;;1.70;;
66270;SDS011;53063;39.614;8.814;2022-08-21T06:57:34;8.37;;;1.23;;
66270;SDS011;53063;39.614;8.814;2022-08-21T07:00:01;7.97;;;1.48;;
66270;SDS011;53063;39.614;8.814;2022-08-21T07:02:29;7.95;;;1.63;;
66270;SDS011;53063;39.614;8.814;2022-08-21T07:04:55;5.78;;;1.15;;
66270;SDS011;53063;39.614;8.814;2022-08-21T07:07:21;3.95;;;1.30;;
66270;SDS011;53063;39.614;8.814;2022-08-21T07:09:47;8.25;;;1.63;;
66270;SDS011;53063;39.614;8.814;2022-08-21T07:12:13;8.48;;;1.40;;
66270;SDS011;53063;39.614;8.814;2022-08-21T07:14:39;8.32;;;1.40;;
66270;SDS011;53063;39.614;8.814;2022-08-21T07:17:05;5.07;;;1.10;;
66270;SDS011;53063;39.614;8.814;2022-08-21T07:19:31;6.15;;;1.65;;
66270;SDS011;53063;39.614;8.814;2022-08-21T07:21:58;5.70;;;1.20;;
66270;SDS011;53063;39.614;8.814;2022-08-21T07:24:27;4.20;;;1.30;;
66270;SDS011;53063;39.614;8.814;2022-08-21T07:26:53;8.48;;;1.25;;
66270;SDS011;53063;39.614;8.814;2022-08-21T07:29:19;6.13;;;1.40;;
66270;SDS011;53063;39.614;8.814;2022-08-21T07:31:45;6.82;;;1.42;;
66270;SDS011;53063;39.614;8.814;2022-08-21T07:34:11;8.98;;;2.22;;
66270;SDS011;53063;39.614;8.814;2022-08-21T07:36:38;8.70;;;1.27;;
66270;SDS011;53063;39.614;8.814;2022-08-21T07:39:03;6.90;;;1.60;;
66270;SDS011;53063;39.614;8.814;2022-08-21T07:41:29;5.60;;;1.33;;
66270;SDS011;53063;39.614;8.814;2022-08-21T07:43:57;3.17;;;1.20;;
66270;SDS011;53063;39.614;8.814;2022-08-21T07:46:23;7.35;;;1.65;;
66270;SDS011;53063;39.614;8.814;2022-08-21T07:48:50;6.43;;;1.30;;
66270;SDS011;53063;39.614;8.814;2022-08-21T07:51:17;7.13;;;1.33;;
66270;SDS011;53063;39.614;8.814;2022-08-21T07:53:49;4.63;;;1.50;;
66270;SDS011;53063;39.614;8.814;2022-08-21T07:56:17;6.63;;;1.40;;
66270;SDS011;53063;39.614;8.814;2022-08-21T07:58:43;5.38;;;1.50;;
66270;SDS011;53063;39.614;8.814;2022-08-21T08:01:09;6.80;;;1.35;;
66270;SDS011;53063;39.614;8.814;2022-08-21T08:03:35;4.68;;;1.45;;
66270;SDS011;53063;39.614;8.814;2022-08-21T08:06:02;5.13;;;1.30;;
66270;SDS011;53063;39.614;8.814;2022-08-21T08:08:30;3.28;;;1.30;;
66270;SDS011;53063;39.614;8.814;2022-08-21T08:10:56;6.65;;;1.33;;
66270;SDS011;53063;39.614;8.814;2022-08-21T08:13:24;5.55;;;1.38;;
66270;SDS011;53063;39.614;8.814;2022-08-21T08:15:51;3.08;;;1.33;;
66270;SDS011;53063;39.614;8.814;2022-08-21T08:18:17;5.30;;;1.20;;
66270;SDS011;53063;39.614;8.814;2022-08-21T08:20:43;5.80;;;1.65;;
66270;SDS011;53063;39.614;8.814;2022-08-21T08:23:10;4.93;;;1.40;;
66270;SDS011;53063;39.614;8.814;2022-08-21T08:25:37;6.95;;;1.77;;
66270;SDS011;53063;39.614;8.814;2022-08-21T08:28:04;3.58;;;1.40;;
66270;SDS011;53063;39.614;8.814;2022-08-21T08:30:30;6.35;;;1.38;;
66270;SDS011;53063;39.614;8.814;2022-08-21T08:32:56;8.90;;;2.60;;
66270;SDS011;53063;39.614;8.814;2022-08-21T08:35:23;7.47;;;3.20;;
66270;SDS011;53063;39.614;8.814;2022-08-21T08:37:50;6.10;;;2.33;;
66270;SDS011;53063;39.614;8.814;2022-08-21T08:43:05;6.28;;;1.70;;
66270;SDS011;53063;39.614;8.814;2022-08-21T08:45:32;5.95;;;1.95;;
66270;SDS011;53063;39.614;8.814;2022-08-21T08:48:03;6.43;;;1.52;;
66270;SDS011;53063;39.614;8.814;2022-08-21T08:50:54;8.20;;;1.73;;
66270;SDS011;53063;39.614;8.814;2022-08-21T08:55:57;6.00;;;1.55;;
66270;SDS011;53063;39.614;8.814;2022-08-21T08:58:37;8.85;;;1.40;;
66270;SDS011;53063;39.614;8.814;2022-08-21T09:01:07;9.13;;;1.70;;
66270;SDS011;53063;39.614;8.814;2022-08-21T09:03:44;8.77;;;1.35;;
66270;SDS011;53063;39.614;8.814;2022-08-21T09:06:21;5.43;;;1.80;;
66270;SDS011;53063;39.614;8.814;2022-08-21T09:09:18;2.75;;;1.10;;
66270;SDS011;53063;39.614;8.814;2022-08-21T09:12:06;7.40;;;1.70;;
66270;SDS011;53063;39.614;8.814;2022-08-21T09:17:19;4.68;;;1.55;;
66270;SDS011;53063;39.614;8.814;2022-08-21T09:25:40;2.38;;;1.05;;
66270;SDS011;53063;39.614;8.814;2022-08-21T09:28:13;4.07;;;1.27;;
66270;SDS011;53063;39.614;8.814;2022-08-21T09:30:40;4.97;;;1.20;;
66270;SDS011;53063;39.614;8.814;2022-08-21T09:33:07;4.38;;;1.15;;
66270;SDS011;53063;39.614;8.814;2022-08-21T09:35:36;4.43;;;1.08;;
66270;SDS011;53063;39.614;8.814;2022-08-21T09:38:24;5.72;;;1.10;;
66270;SDS011;53063;39.614;8.814;2022-08-21T09:40:58;4.53;;;0.98;;
66270;SDS011;53063;39.614;8.814;2022-08-21T09:43:30;5.90;;;1.45;;
66270;SDS011;53063;39.614;8.814;2022-08-21T09:46:04;3.13;;;1.17;;
66270;SDS011;53063;39.614;8.814;2022-08-21T09:48:45;4.05;;;1.30;;
66270;SDS011;53063;39.614;8.814;2022-08-21T09:51:15;5.15;;;1.33;;
66270;SDS011;53063;39.614;8.814;2022-08-21T09:54:14;3.15;;;1.08;;
66270;SDS011;53063;39.614;8.814;2022-08-21T09:56:59;2.67;;;1.00;;
66270;SDS011;53063;39.614;8.814;2022-08-21T10:00:37;4.32;;;1.17;;
66270;SDS011;53063;39.614;8.814;2022-08-21T10:03:16;2.92;;;1.17;;
66270;SDS011;53063;39.614;8.814;2022-08-21T10:06:06;3.90;;;1.35;;
66270;SDS011;53063;39.614;8.814;2022-08-21T10:08:39;4.13;;;1.20;;
66270;SDS011;53063;39.614;8.814;2022-08-21T10:11:07;6.28;;;1.25;;
66270;SDS011;53063;39.614;8.814;2022-08-21T10:13:47;7.55;;;3.22;;
66270;SDS011;53063;39.614;8.814;2022-08-21T10:17:17;6.22;;;1.55;;
66270;SDS011;53063;39.614;8.814;2022-08-21T10:30:30;5.82;;;2.10;;
66270;SDS011;53063;39.614;8.814;2022-08-21T10:36:02;6.72;;;1.65;;
66270;SDS011;53063;39.614;8.814;2022-08-21T10:38:42;8.23;;;1.63;;
66270;SDS011;53063;39.614;8.814;2022-08-21T10:41:42;2.75;;;1.08;;
66270;SDS011;53063;39.614;8.814;2022-08-21T10:44:30;2.80;;;0.95;;
66270;SDS011;53063;39.614;8.814;2022-08-21T10:47:57;1.52;;;0.77;;
66270;SDS011;53063;39.614;8.814;2022-08-21T10:55:33;4.37;;;1.10;;
66270;SDS011;53063;39.614;8.814;2022-08-21T10:58:10;4.70;;;1.20;;
66270;SDS011;53063;39.614;8.814;2022-08-21T11:00:49;4.55;;;1.63;;
66270;SDS011;53063;39.614;8.814;2022-08-21T11:08:39;4.57;;;1.38;;
66270;SDS011;53063;39.614;8.814;2022-08-21T11:11:10;4.25;;;1.02;;
66270;SDS011;53063;39.614;8.814;2022-08-21T11:21:47;3.13;;;1.00;;
66270;SDS011;53063;39.614;8.814;2022-08-21T11:24:33;5.90;;;1.35;;
66270;SDS011;53063;39.614;8.814;2022-08-21T11:29:57;3.13;;;0.90;;
66270;SDS011;53063;39.614;8.814;2022-08-21T11:51:21;3.83;;;0.90;;
66270;SDS011;53063;39.614;8.814;2022-08-21T11:56:51;4.60;;;1.08;;
66270;SDS011;53063;39.614;8.814;2022-08-21T11:59:39;1.60;;;0.90;;
66270;SDS011;53063;39.614;8.814;2022-08-21T12:02:13;3.35;;;0.80;;
66270;SDS011;53063;39.614;8.814;2022-08-21T12:04:56;1.98;;;1.00;;
66270;SDS011;53063;39.614;8.814;2022-08-21T12:10:30;3.28;;;1.38;;
66270;SDS011;53063;39.614;8.814;2022-08-21T12:13:25;3.28;;;1.48;;
66270;SDS011;53063;39.614;8.814;2022-08-21T12:15:52;3.67;;;1.25;;
66270;SDS011;53063;39.614;8.814;2022-08-21T12:18:30;5.00;;;1.48;;
66270;SDS011;53063;39.614;8.814;2022-08-21T12:23:32;3.22;;;0.98;;
66270;SDS011;53063;39.614;8.814;2022-08-21T12:26:23;3.13;;;1.05;;
66270;SDS011;53063;39.614;8.814;2022-08-21T12:29:02;3.75;;;1.20;;
66270;SDS011;53063;39.614;8.814;2022-08-21T12:31:51;4.25;;;1.20;;
66270;SDS011;53063;39.614;8.814;2022-08-21T12:34:20;3.47;;;0.93;;
66270;SDS011;53063;39.614;8.814;2022-08-21T12:37:00;3.67;;;1.13;;
66270;SDS011;53063;39.614;8.814;2022-08-21T12:39:51;4.65;;;1.20;;
66270;SDS011;53063;39.614;8.814;2022-08-21T12:42:23;4.57;;;1.20;;
66270;SDS011;53063;39.614;8.814;2022-08-21T12:44:58;3.83;;;0.80;;
66270;SDS011;53063;39.614;8.814;2022-08-21T12:47:47;2.67;;;0.80;;
66270;SDS011;53063;39.614;8.814;2022-08-21T12:50:21;6.03;;;1.50;;
66270;SDS011;53063;39.614;8.814;2022-08-21T12:55:57;1.85;;;0.88;;
66270;SDS011;53063;39.614;8.814;2022-08-21T12:58:29;1.10;;;0.60;;
66270;SDS011;53063;39.614;8.814;2022-08-21T13:01:06;2.45;;;0.65;;
66270;SDS011;53063;39.614;8.814;2022-08-21T13:03:42;2.17;;;1.00;;
66270;SDS011;53063;39.614;8.814;2022-08-21T13:06:12;3.13;;;1.05;;
66270;SDS011;53063;39.614;8.814;2022-08-21T13:08:43;2.08;;;0.73;;
66270;SDS011;53063;39.614;8.814;2022-08-21T13:11:11;1.77;;;0.90;;
66270;SDS011;53063;39.614;8.814;2022-08-21T13:13:43;0.90;;;0.50;;
66270;SDS011;53063;39.614;8.814;2022-08-21T13:16:13;2.45;;;0.60;;
66270;SDS011;53063;39.614;8.814;2022-08-21T13:19:00;2.13;;;0.80;;
66270;SDS011;53063;39.614;8.814;2022-08-21T13:21:32;2.10;;;0.77;;
66270;SDS011;53063;39.614;8.814;2022-08-21T13:24:08;1.80;;;0.63;;
66270;SDS011;53063;39.614;8.814;2022-08-21T13:26:40;1.55;;;0.50;;
66270;SDS011;53063;39.614;8.814;2022-08-21T13:29:08;2.40;;;0.73;;
66270;SDS011;53063;39.614;8.814;2022-08-21T13:31:36;1.48;;;0.50;;
66270;SDS011;53063;39.614;8.814;2022-08-21T13:34:05;2.00;;;0.70;;
66270;SDS011;53063;39.614;8.814;2022-08-21T13:36:34;1.27;;;0.60;;
66270;SDS011;53063;39.614;8.814;2022-08-21T13:39:05;2.28;;;0.80;;
66270;SDS011;53063;39.614;8.814;2022-08-21T13:41:35;0.55;;;0.50;;
66270;SDS011;53063;39.614;8.814;2022-08-21T13:44:05;0.80;;;0.60;;
66270;SDS011;53063;39.614;8.814;2022-08-21T13:46:52;1.38;;;0.52;;
66270;SDS011;53063;39.614;8.814;2022-08-21T13:49:20;3.75;;;0.60;;
66270;SDS011;53063;39.614;8.814;2022-08-21T13:51:54;2.33;;;0.50;;
66270;SDS011;53063;39.614;8.814;2022-08-21T13:56:46;2.22;;;0.50;;
66270;SDS011;53063;39.614;8.814;2022-08-21T13:59:14;2.60;;;0.95;;
66270;SDS011;53063;39.614;8.814;2022-08-21T14:01:59;1.13;;;0.50;;
66270;SDS011;53063;39.614;8.814;2022-08-21T14:04:33;0.40;;;0.40;;
66270;SDS011;53063;39.614;8.814;2022-08-21T14:07:02;2.25;;;0.60;;
66270;SDS011;53063;39.614;8.814;2022-08-21T14:09:42;0.80;;;0.30;;
66270;SDS011;53063;39.614;8.814;2022-08-21T14:12:16;1.33;;;0.60;;
66270;SDS011;53063;39.614;8.814;2022-08-21T14:14:54;0.73;;;0.45;;
66270;SDS011;53063;39.614;8.814;2022-08-21T14:17:27;0.60;;;0.60;;
66270;SDS011;53063;39.614;8.814;2022-08-21T14:19:53;2.67;;;0.53;;
66270;SDS011;53063;39.614;8.814;2022-08-21T14:24:59;0.32;;;0.32;;
66270;SDS011;53063;39.614;8.814;2022-08-21T14:27:31;1.05;;;0.82;;
66270;SDS011;53063;39.614;8.814;2022-08-21T14:30:00;1.60;;;0.40;;
66270;SDS011;53063;39.614;8.814;2022-08-21T14:32:56;1.00;;;0.47;;
66270;SDS011;53063;39.614;8.814;2022-08-21T14:35:24;0.60;;;0.40;;
66270;SDS011;53063;39.614;8.814;2022-08-21T14:37:50;1.20;;;0.45;;
66270;SDS011;53063;39.614;8.814;2022-08-21T14:40:17;1.52;;;0.98;;
66270;SDS011;53063;39.614;8.814;2022-08-21T14:42:44;1.20;;;0.35;;
66270;SDS011;53063;39.614;8.814;2022-08-21T14:45:29;0.50;;;0.47;;
66270;SDS011;53063;39.614;8.814;2022-08-21T14:47:57;2.17;;;0.82;;
66270;SDS011;53063;39.614;8.814;2022-08-21T14:50:24;0.40;;;0.25;;
66270;SDS011;53063;39.614;8.814;2022-08-21T14:52:51;1.48;;;0.50;;
66270;SDS011;53063;39.614;8.814;2022-08-21T14:55:18;0.45;;;0.30;;
66270;SDS011;53063;39.614;8.814;2022-08-21T14:57:45;1.73;;;0.50;;
66270;SDS011;53063;39.614;8.814;2022-08-21T15:00:14;1.25;;;0.50;;
66270;SDS011;53063;39.614;8.814;2022-08-21T15:02:45;2.00;;;0.43;;
66270;SDS011;53063;39.614;8.814;2022-08-21T15:05:12;0.63;;;0.40;;
66270;SDS011;53063;39.614;8.814;2022-08-21T15:07:38;2.38;;;0.50;;
66270;SDS011;53063;39.614;8.814;2022-08-21T15:10:06;1.90;;;0.45;;
66270;SDS011;53063;39.614;8.814;2022-08-21T15:12:32;0.93;;;0.40;;
66270;SDS011;53063;39.614;8.814;2022-08-21T15:14:58;0.70;;;0.50;;
66270;SDS011;53063;39.614;8.814;2022-08-21T15:17:24;0.70;;;0.60;;
66270;SDS011;53063;39.614;8.814;2022-08-21T15:19:50;1.17;;;0.45;;
66270;SDS011;53063;39.614;8.814;2022-08-21T15:22:16;0.90;;;0.40;;
66270;SDS011;53063;39.614;8.814;2022-08-21T15:24:42;1.65;;;0.40;;
66270;SDS011;53063;39.614;8.814;2022-08-21T15:27:09;2.38;;;0.50;;
66270;SDS011;53063;39.614;8.814;2022-08-21T15:29:35;0.82;;;0.55;;
66270;SDS011;53063;39.614;8.814;2022-08-21T15:32:03;1.70;;;0.40;;
66270;SDS011;53063;39.614;8.814;2022-08-21T15:34:45;0.60;;;0.40;;
66270;SDS011;53063;39.614;8.814;2022-08-21T15:37:11;1.90;;;0.45;;
66270;SDS011;53063;39.614;8.814;2022-08-21T15:39:37;0.80;;;0.55;;
66270;SDS011;53063;39.614;8.814;2022-08-21T15:42:03;0.47;;;0.43;;
66270;SDS011;53063;39.614;8.814;2022-08-21T15:44:30;1.20;;;0.40;;
66270;SDS011;53063;39.614;8.814;2022-08-21T15:46:56;0.82;;;0.65;;
66270;SDS011;53063;39.614;8.814;2022-08-21T15:49:24;0.88;;;0.40;;
66270;SDS011;53063;39.614;8.814;2022-08-21T15:51:50;2.85;;;0.50;;
66270;SDS011;53063;39.614;8.814;2022-08-21T15:54:16;1.05;;;0.40;;
66270;SDS011;53063;39.614;8.814;2022-08-21T15:56:43;1.65;;;0.55;;
66270;SDS011;53063;39.614;8.814;2022-08-21T15:59:14;1.38;;;0.40;;
66270;SDS011;53063;39.614;8.814;2022-08-21T16:01:43;1.05;;;0.40;;
66270;SDS011;53063;39.614;8.814;2022-08-21T16:04:10;1.15;;;0.38;;
66270;SDS011;53063;39.614;8.814;2022-08-21T16:06:43;1.25;;;0.43;;
66270;SDS011;53063;39.614;8.814;2022-08-21T16:09:10;1.23;;;0.47;;
66270;SDS011;53063;39.614;8.814;2022-08-21T16:11:36;1.13;;;0.40;;
66270;SDS011;53063;39.614;8.814;2022-08-21T16:14:03;1.63;;;0.47;;
66270;SDS011;53063;39.614;8.814;2022-08-21T16:16:29;2.35;;;0.50;;
66270;SDS011;53063;39.614;8.814;2022-08-21T16:18:58;0.98;;;0.30;;
66270;SDS011;53063;39.614;8.814;2022-08-21T16:21:24;1.70;;;0.60;;
66270;SDS011;53063;39.614;8.814;2022-08-21T16:23:50;2.58;;;0.70;;
66270;SDS011;53063;39.614;8.814;2022-08-21T16:26:16;1.10;;;0.57;;
66270;SDS011;53063;39.614;8.814;2022-08-21T16:28:42;2.55;;;0.52;;
66270;SDS011;53063;39.614;8.814;2022-08-21T16:31:10;3.83;;;0.55;;